Time;durP1;ratioP1;P1;durP2;ratioP2;P2;SDS_P1;SDS_P2;PMS_P1;PMS_P2;Temp;Humidity;BMP_temperature;BMP_pressure;BME280_temperature;BME280_humidity;BME280_pressure;Samples;Min_cycle;Max_cycle;Signal;HPM_P1;HPM_P2
2024/04/24 16:05:21;;;;;;;199.02;58.17;;;;;;;;;;5420934;25;20434;-62
2024/04/24 16:07:50;;;;;;;199.20;58.47;;;;;;;;;;5406639;26;20387;-63
2024/04/24 16:10:18;;;;;;;200.15;59.13;;;;;;;;;;5359989;26;20456;-63
2024/04/24 16:12:47;;;;;;;200.07;61.08;;;;;;;;;;5367295;26;20368;-63
2024/04/24 16:15:17;;;;;;;200.93;60.92;;;;;;;;;;5359576;26;20340;-63
2024/04/24 16:17:46;;;;;;;200.05;60.55;;;;;;;;;;5364879;26;20706;-62
2024/04/24 16:20:15;;;;;;;197.60;57.37;;;;;;;;;;5360081;26;20340;-63
2024/04/24 16:22:47;;;;;;;198.90;59.47;;;;;;;;;;5359576;26;20959;-63
2024/04/24 16:25:15;;;;;;;199.57;59.65;;;;;;;;;;5359606;26;20359;-63
2024/04/24 16:27:44;;;;;;;200.00;60.70;;;;;;;;;;5360050;26;20340;-63
2024/04/24 16:30:13;;;;;;;201.77;63.10;;;;;;;;;;5359901;26;20427;-63
2024/04/24 16:32:43;;;;;;;203.13;66.13;;;;;;;;;;5360015;26;20351;-62
2024/04/24 16:35:11;;;;;;;203.90;67.40;;;;;;;;;;5360286;26;20836;-62
2024/04/24 16:37:42;;;;;;;202.63;64.57;;;;;;;;;;5360683;26;20364;-63
2024/04/24 16:40:13;;;;;;;201.55;63.90;;;;;;;;;;5358067;26;20352;-62
2024/04/24 16:42:42;;;;;;;201.13;62.05;;;;;;;;;;5363064;26;20343;-62
2024/04/24 16:45:12;;;;;;;201.82;62.58;;;;;;;;;;5359739;26;20920;-62
2024/04/24 16:47:40;;;;;;;201.68;61.28;;;;;;;;;;5362538;26;20441;-62
2024/04/24 16:50:09;;;;;;;202.05;62.63;;;;;;;;;;5363444;26;20336;-62
2024/04/24 16:52:38;;;;;;;202.05;62.58;;;;;;;;;;5362767;26;20336;-63
2024/04/24 16:55:07;;;;;;;202.47;63.67;;;;;;;;;;5364643;26;20831;-62
2024/04/24 16:57:38;;;;;;;199.50;58.72;;;;;;;;;;5360161;26;20449;-63
2024/04/24 17:00:07;;;;;;;201.23;60.70;;;;;;;;;;5360128;26;20348;-63
2024/04/24 17:02:36;;;;;;;200.55;60.70;;;;;;;;;;5355310;26;20773;-63
2024/04/24 17:05:06;;;;;;;201.60;61.28;;;;;;;;;;5359455;26;20376;-61
2024/04/24 17:07:36;;;;;;;201.65;61.70;;;;;;;;;;5359565;26;20714;-62
2024/04/24 17:10:05;;;;;;;203.00;63.40;;;;;;;;;;5362340;26;20344;-61
2024/04/24 17:12:34;;;;;;;220.88;82.78;;;;;;;;;;5361528;26;20382;-69
2024/04/24 17:15:05;;;;;;;201.00;61.85;;;;;;;;;;5355645;26;20383;-65
2024/04/24 17:17:35;;;;;;;201.48;64.22;;;;;;;;;;5344388;26;20763;-67
2024/04/24 17:20:04;;;;;;;202.70;64.33;;;;;;;;;;5343502;26;20337;-66
2024/04/24 17:22:33;;;;;;;206.52;67.82;;;;;;;;;;5340698;26;20360;-66
2024/04/24 17:25:02;;;;;;;202.50;62.42;;;;;;;;;;5344076;26;20341;-65
2024/04/24 17:27:32;;;;;;;203.18;63.58;;;;;;;;;;5343228;26;20337;-65
2024/04/24 17:30:01;;;;;;;203.70;64.03;;;;;;;;;;5344275;26;20388;-66
2024/04/24 17:32:32;;;;;;;203.30;62.13;;;;;;;;;;5352161;26;20679;-65
2024/04/24 17:35:01;;;;;;;201.23;59.88;;;;;;;;;;5342300;26;20496;-64
2024/04/24 17:37:32;;;;;;;202.35;62.30;;;;;;;;;;5347533;26;20340;-64
2024/04/24 17:40:01;;;;;;;201.43;61.22;;;;;;;;;;5342920;26;20345;-65
2024/04/24 17:42:30;;;;;;;202.75;62.80;;;;;;;;;;5345988;26;20404;-65
2024/04/24 17:44:58;;;;;;;204.70;65.22;;;;;;;;;;5347263;26;20440;-65
2024/04/24 17:47:27;;;;;;;203.35;64.13;;;;;;;;;;5336220;26;20349;-65
2024/04/24 17:49:58;;;;;;;204.18;64.07;;;;;;;;;;5336721;26;20447;-65
2024/04/24 17:52:27;;;;;;;205.20;65.30;;;;;;;;;;5340642;26;20439;-66
2024/04/24 17:54:56;;;;;;;202.68;63.60;;;;;;;;;;5342007;26;20412;-66
2024/04/24 17:57:25;;;;;;;202.60;62.50;;;;;;;;;;5343031;26;20490;-66
2024/04/24 17:59:55;;;;;;;203.03;61.77;;;;;;;;;;5342871;26;20349;-65
2024/04/24 18:02:24;;;;;;;202.73;62.38;;;;;;;;;;5341832;26;20685;-66
2024/04/24 18:04:54;;;;;;;203.75;63.10;;;;;;;;;;5342948;26;20345;-66
2024/04/24 18:07:27;;;;;;;204.30;63.78;;;;;;;;;;5341055;26;20425;-66
2024/04/24 18:09:56;;;;;;;202.07;60.30;;;;;;;;;;5343454;26;20373;-66
2024/04/24 18:12:24;;;;;;;201.07;58.25;;;;;;;;;;5343930;26;20340;-66
2024/04/24 18:14:54;;;;;;;203.38;59.83;;;;;;;;;;5345592;26;20384;-66
2024/04/24 18:17:23;;;;;;;201.93;58.97;;;;;;;;;;5337696;26;20337;-65
2024/04/24 18:19:51;;;;;;;200.25;57.90;;;;;;;;;;5342571;26;20440;-65
2024/04/24 18:22:20;;;;;;;200.45;57.53;;;;;;;;;;5345578;26;20389;-65
2024/04/24 18:24:52;;;;;;;200.40;58.20;;;;;;;;;;5341796;26;20388;-66
2024/04/24 18:27:20;;;;;;;202.32;60.33;;;;;;;;;;5346164;26;20385;-65
2024/04/24 18:29:49;;;;;;;201.82;60.67;;;;;;;;;;5350374;26;20337;-66
2024/04/24 18:32:18;;;;;;;204.20;62.67;;;;;;;;;;5349197;26;20447;-65
2024/04/24 18:34:46;;;;;;;200.57;58.72;;;;;;;;;;5353121;26;20846;-65
2024/04/24 18:37:15;;;;;;;202.10;61.42;;;;;;;;;;5340662;26;20795;-66
2024/04/24 18:39:44;;;;;;;202.25;61.03;;;;;;;;;;5341831;26;20352;-65
2024/04/24 18:42:15;;;;;;;201.03;59.33;;;;;;;;;;5345801;26;20435;-66
2024/04/24 18:44:44;;;;;;;200.95;59.30;;;;;;;;;;5344492;26;20862;-65
2024/04/24 18:47:13;;;;;;;198.93;55.78;;;;;;;;;;5342100;26;20344;-65
2024/04/24 18:49:42;;;;;;;200.53;57.63;;;;;;;;;;5347535;26;20498;-67
2024/04/24 18:52:11;;;;;;;200.43;57.45;;;;;;;;;;5343448;26;20388;-66
2024/04/24 18:54:40;;;;;;;200.25;57.05;;;;;;;;;;5346736;26;20336;-66
2024/04/24 18:57:09;;;;;;;202.82;60.78;;;;;;;;;;5346668;26;20341;-66
2024/04/24 18:59:40;;;;;;;200.75;59.33;;;;;;;;;;5342034;26;20718;-66
2024/04/24 19:02:11;;;;;;;201.13;58.25;;;;;;;;;;5341233;26;20336;-66
2024/04/24 19:04:39;;;;;;;199.20;55.78;;;;;;;;;;5341279;26;20336;-66
2024/04/24 19:07:08;;;;;;;200.05;57.70;;;;;;;;;;5342202;26;20345;-66
2024/04/24 19:09:37;;;;;;;200.57;58.05;;;;;;;;;;5349272;26;20366;-66
2024/04/24 19:12:06;;;;;;;201.57;59.17;;;;;;;;;;5348718;26;20363;-65
2024/04/24 19:14:35;;;;;;;200.18;57.63;;;;;;;;;;5346814;26;20341;-65
2024/04/24 19:17:07;;;;;;;198.98;55.83;;;;;;;;;;5344066;26;20392;-66
2024/04/24 19:19:35;;;;;;;201.70;58.95;;;;;;;;;;5345765;26;20348;-64
2024/04/24 19:22:04;;;;;;;200.40;57.30;;;;;;;;;;5343189;26;20341;-66
2024/04/24 19:24:33;;;;;;;201.93;59.78;;;;;;;;;;5341440;26;20372;-65
2024/04/24 19:27:01;;;;;;;199.40;57.53;;;;;;;;;;5336773;26;20438;-63
2024/04/24 19:29:30;;;;;;;199.30;56.08;;;;;;;;;;5335236;26;20970;-63
2024/04/24 19:31:59;;;;;;;199.70;56.58;;;;;;;;;;5342870;26;20454;-68
2024/04/24 19:34:30;;;;;;;198.97;55.93;;;;;;;;;;5340608;26;20329;-66
2024/04/24 19:36:59;;;;;;;198.60;55.75;;;;;;;;;;5341905;26;20766;-66
2024/04/24 19:39:28;;;;;;;199.68;55.50;;;;;;;;;;5340605;26;20349;-66
2024/04/24 19:41:57;;;;;;;200.32;57.20;;;;;;;;;;5344834;26;20348;-65
2024/04/24 19:44:26;;;;;;;200.18;56.55;;;;;;;;;;5338111;26;20333;-65
2024/04/24 19:46:54;;;;;;;200.15;57.13;;;;;;;;;;5341947;26;20718;-65
2024/04/24 19:49:23;;;;;;;199.63;55.90;;;;;;;;;;5346745;26;20353;-66
2024/04/24 19:51:54;;;;;;;200.70;57.75;;;;;;;;;;5348588;26;20333;-68
2024/04/24 19:54:23;;;;;;;199.27;56.03;;;;;;;;;;5343528;26;20345;-67
2024/04/24 19:56:52;;;;;;;201.63;59.13;;;;;;;;;;5341222;26;20842;-69
2024/04/24 19:59:21;;;;;;;199.67;56.20;;;;;;;;;;5343403;26;20333;-69
2024/04/24 20:01:52;;;;;;;199.70;55.92;;;;;;;;;;5347363;26;20349;-68
2024/04/24 20:04:21;;;;;;;200.25;56.25;;;;;;;;;;5343090;26;20345;-66
2024/04/24 20:06:50;;;;;;;200.68;56.60;;;;;;;;;;5343449;26;20341;-68
2024/04/24 20:09:21;;;;;;;200.68;57.45;;;;;;;;;;5356337;26;20457;-69
2024/04/24 20:11:50;;;;;;;200.90;57.95;;;;;;;;;;5343477;26;20349;-69
2024/04/24 20:14:18;;;;;;;200.25;56.35;;;;;;;;;;5347382;26;20348;-67
2024/04/24 20:16:47;;;;;;;200.70;56.85;;;;;;;;;;5335805;26;20340;-69
2024/04/24 20:19:16;;;;;;;200.93;57.50;;;;;;;;;;5348908;26;20440;-68
2024/04/24 20:21:45;;;;;;;199.20;56.25;;;;;;;;;;5342274;26;20381;-68
2024/04/24 20:24:14;;;;;;;200.63;57.80;;;;;;;;;;5343270;26;20920;-69
2024/04/24 20:26:47;;;;;;;199.25;55.58;;;;;;;;;;5342089;26;20849;-68
2024/04/24 20:29:16;;;;;;;200.75;56.88;;;;;;;;;;5352787;26;20381;-69
2024/04/24 20:31:42;;;;;;;201.48;57.05;;;;;;;;;;5344207;26;20374;-68
2024/04/24 20:34:13;;;;;;;201.32;56.83;;;;;;;;;;5346584;26;20346;-69
2024/04/24 20:36:42;;;;;;;200.35;56.38;;;;;;;;;;5342372;26;20373;-68
2024/04/24 20:39:11;;;;;;;200.90;57.05;;;;;;;;;;5343273;26;20349;-69
2024/04/24 20:41:42;;;;;;;199.05;55.65;;;;;;;;;;5335285;26;20341;-67
2024/04/24 20:44:13;;;;;;;200.35;56.70;;;;;;;;;;5343457;26;20341;-68
2024/04/24 20:46:42;;;;;;;202.05;57.83;;;;;;;;;;5343870;26;20909;-68
2024/04/24 20:49:10;;;;;;;201.63;57.70;;;;;;;;;;5349036;26;20719;-67
2024/04/24 20:51:40;;;;;;;200.45;56.00;;;;;;;;;;5347528;26;20443;-68
2024/04/24 20:54:09;;;;;;;201.55;58.05;;;;;;;;;;5345905;26;20835;-68
2024/04/24 20:56:37;;;;;;;200.38;56.60;;;;;;;;;;5346416;26;20344;-68
2024/04/24 20:59:08;;;;;;;200.50;56.65;;;;;;;;;;5346402;26;20337;-68
2024/04/24 21:01:39;;;;;;;200.38;56.00;;;;;;;;;;5345050;26;20808;-68
2024/04/24 21:04:08;;;;;;;199.00;54.43;;;;;;;;;;5347032;26;20853;-68
2024/04/24 21:06:38;;;;;;;199.98;56.53;;;;;;;;;;5344884;26;20344;-68
2024/04/24 21:09:06;;;;;;;199.68;55.72;;;;;;;;;;5354961;26;20338;-68
2024/04/24 21:11:34;;;;;;;199.73;55.13;;;;;;;;;;5344815;26;20348;-69
2024/04/24 21:14:03;;;;;;;199.90;55.83;;;;;;;;;;5346548;26;20696;-68
2024/04/24 21:16:32;;;;;;;199.38;55.15;;;;;;;;;;5344653;26;20547;-69
2024/04/24 21:19:03;;;;;;;198.43;54.17;;;;;;;;;;5348694;26;20333;-69
2024/04/24 21:21:32;;;;;;;198.27;54.77;;;;;;;;;;5346239;26;20342;-69
2024/04/24 21:24:00;;;;;;;198.00;53.38;;;;;;;;;;5348128;26;20340;-68
2024/04/24 21:26:29;;;;;;;199.27;55.40;;;;;;;;;;5345148;26;20341;-69
2024/04/24 21:28:58;;;;;;;198.35;53.97;;;;;;;;;;5354198;26;20351;-68
2024/04/24 21:31:26;;;;;;;199.25;55.88;;;;;;;;;;5344401;26;20352;-68
2024/04/24 21:33:55;;;;;;;199.55;57.10;;;;;;;;;;5343827;26;20370;-69
2024/04/24 21:36:26;;;;;;;199.15;55.20;;;;;;;;;;5344348;26;20360;-69
2024/04/24 21:38:55;;;;;;;201.85;58.22;;;;;;;;;;5344576;26;20333;-68
2024/04/24 21:41:21;;;;;;;197.90;53.65;;;;;;;;;;5350311;26;20745;-68
2024/04/24 21:43:50;;;;;;;200.18;56.28;;;;;;;;;;5344838;26;20357;-68
2024/04/24 21:46:20;;;;;;;198.27;53.58;;;;;;;;;;5343862;26;20337;-69
2024/04/24 21:48:48;;;;;;;199.38;55.90;;;;;;;;;;5351806;26;20444;-68
2024/04/24 21:51:15;;;;;;;198.52;54.38;;;;;;;;;;5350359;26;20838;-69
2024/04/24 21:53:46;;;;;;;199.35;56.13;;;;;;;;;;5349037;26;20727;-68
2024/04/24 21:56:15;;;;;;;200.55;56.25;;;;;;;;;;5344019;26;20348;-68
2024/04/24 21:58:43;;;;;;;200.60;56.95;;;;;;;;;;5344237;26;20885;-68
2024/04/24 22:01:18;;;;;;;197.90;54.15;;;;;;;;;;5339547;26;20449;-68
2024/04/24 22:03:47;;;;;;;199.33;55.90;;;;;;;;;;5343560;26;20337;-68
2024/04/24 22:06:18;;;;;;;199.10;54.28;;;;;;;;;;5344076;26;20329;-69
2024/04/24 22:08:50;;;;;;;197.98;54.47;;;;;;;;;;5354485;26;20349;-69
2024/04/24 22:11:16;;;;;;;198.00;53.47;;;;;;;;;;5343818;26;21128;-69
2024/04/24 22:13:45;;;;;;;198.43;54.63;;;;;;;;;;5343302;26;20344;-69
2024/04/24 22:16:14;;;;;;;199.35;54.38;;;;;;;;;;5342862;26;20767;-69
2024/04/24 22:18:42;;;;;;;198.18;54.85;;;;;;;;;;5343931;26;20365;-69
2024/04/24 22:21:11;;;;;;;197.88;53.60;;;;;;;;;;5339602;26;20344;-68
2024/04/24 22:23:40;;;;;;;197.18;52.83;;;;;;;;;;5337072;26;20853;-68
2024/04/24 22:26:13;;;;;;;198.00;53.28;;;;;;;;;;5343305;26;20500;-68
2024/04/24 22:28:42;;;;;;;198.13;54.33;;;;;;;;;;5353147;26;20738;-68
2024/04/24 22:31:12;;;;;;;198.15;53.97;;;;;;;;;;5346520;26;20372;-68
2024/04/24 22:33:41;;;;;;;198.65;54.85;;;;;;;;;;5345759;26;20365;-68
2024/04/24 22:36:10;;;;;;;198.73;54.35;;;;;;;;;;5345370;26;21012;-68
2024/04/24 22:38:39;;;;;;;199.23;55.55;;;;;;;;;;5343710;26;20365;-68
2024/04/24 22:41:08;;;;;;;198.13;53.97;;;;;;;;;;5343386;26;20355;-68
2024/04/24 22:43:40;;;;;;;197.90;53.33;;;;;;;;;;5337757;26;20337;-68
2024/04/24 22:46:11;;;;;;;196.65;51.95;;;;;;;;;;5338242;26;20341;-68
2024/04/24 22:48:40;;;;;;;199.05;55.30;;;;;;;;;;5351956;26;20935;-67
2024/04/24 22:51:08;;;;;;;197.90;53.15;;;;;;;;;;5343120;26;20337;-67
2024/04/24 22:53:43;;;;;;;197.15;53.05;;;;;;;;;;5342894;26;20712;-67
2024/04/24 22:56:11;;;;;;;199.15;54.45;;;;;;;;;;5343160;26;20392;-67
2024/04/24 22:58:44;;;;;;;199.38;54.28;;;;;;;;;;5343917;26;20678;-66
2024/04/24 23:01:13;;;;;;;198.02;53.75;;;;;;;;;;5342434;26;20740;-68
2024/04/24 23:03:41;;;;;;;197.20;52.70;;;;;;;;;;5342492;26;20371;-68
2024/04/24 23:06:10;;;;;;;196.68;51.85;;;;;;;;;;5343014;26;20341;-68
2024/04/24 23:08:41;;;;;;;197.55;53.30;;;;;;;;;;5350769;26;20842;-67
2024/04/24 23:11:10;;;;;;;198.05;53.85;;;;;;;;;;5343018;26;20383;-68
2024/04/24 23:13:39;;;;;;;197.98;53.67;;;;;;;;;;5341490;26;20842;-68
2024/04/24 23:16:10;;;;;;;195.50;51.58;;;;;;;;;;5342745;26;20348;-68
2024/04/24 23:18:39;;;;;;;196.05;51.60;;;;;;;;;;5343385;26;20345;-68
2024/04/24 23:21:08;;;;;;;198.47;54.13;;;;;;;;;;5345244;26;20726;-68
2024/04/24 23:23:37;;;;;;;197.88;53.47;;;;;;;;;;5344497;26;20349;-68
2024/04/24 23:26:05;;;;;;;195.40;51.55;;;;;;;;;;5336775;26;20371;-67
2024/04/24 23:28:34;;;;;;;195.90;55.23;;;;;;;;;;5341568;26;20358;-68
2024/04/24 23:31:03;;;;;;;196.75;54.17;;;;;;;;;;5342955;26;20337;-67
2024/04/24 23:33:31;;;;;;;196.27;52.92;;;;;;;;;;5342269;26;20413;-68
2024/04/24 23:36:04;;;;;;;195.98;52.17;;;;;;;;;;5342943;26;20349;-68
2024/04/24 23:38:32;;;;;;;194.82;50.72;;;;;;;;;;5340346;26;20360;-68
2024/04/24 23:41:01;;;;;;;197.50;53.60;;;;;;;;;;5342515;26;20341;-68
2024/04/24 23:43:30;;;;;;;197.13;52.75;;;;;;;;;;5342130;26;20329;-68
2024/04/24 23:45:58;;;;;;;191.38;53.00;;;;;;;;;;5342356;26;20439;-68
2024/04/24 23:48:27;;;;;;;197.85;54.00;;;;;;;;;;5352203;26;20333;-68
2024/04/24 23:50:58;;;;;;;194.63;50.58;;;;;;;;;;5348648;26;20760;-68
2024/04/24 23:53:29;;;;;;;196.68;54.22;;;;;;;;;;5343481;26;20656;-68
2024/04/24 23:55:58;;;;;;;194.30;55.15;;;;;;;;;;5342449;26;20357;-67
2024/04/24 23:58:27;;;;;;;197.90;54.63;;;;;;;;;;5342657;26;20389;-68
